Time;durP1;ratioP1;P1;durP2;ratioP2;P2;SDS_P1;SDS_P2;PMS_P1;PMS_P2;Temp;Humidity;BMP_temperature;BMP_pressure;BME280_temperature;BME280_humidity;BME280_pressure;Samples;Min_cycle;Max_cycle;Signal;HPM_P1;HPM_P2
2023/11/21 00:00:15;;;;;;;12.38;4.93;;;13.20;99.90;;;;;;4264952;27;20384;-56
2023/11/21 00:02:18;;;;;;;8.98;4.35;;;13.20;99.90;;;;;;4265972;27;20516;-56
2023/11/21 00:04:21;;;;;;;8.65;4.40;;;13.30;99.90;;;;;;4265372;27;20042;-56
2023/11/21 00:06:24;;;;;;;7.97;3.72;;;13.30;99.90;;;;;;4265219;27;20096;-56
2023/11/21 00:08:27;;;;;;;9.40;4.28;;;13.30;99.90;;;;;;4265197;27;20051;-57
2023/11/21 00:10:30;;;;;;;10.43;4.03;;;13.20;99.90;;;;;;4265329;27;20043;-57
2023/11/21 00:12:33;;;;;;;12.40;5.13;;;13.10;99.90;;;;;;4265127;27;20053;-56
2023/11/21 00:14:35;;;;;;;10.40;4.40;;;13.10;99.90;;;;;;4264884;27;20066;-58
2023/11/21 00:16:37;;;;;;;12.13;4.40;;;13.20;99.90;;;;;;4265260;27;20066;-56
2023/11/21 00:18:39;;;;;;;14.93;4.75;;;13.30;99.90;;;;;;4245714;27;20313;-55
2023/11/21 00:20:41;;;;;;;10.68;4.60;;;13.20;99.90;;;;;;4265081;27;20430;-56
2023/11/21 00:22:46;;;;;;;10.55;3.90;;;13.30;99.90;;;;;;4264991;27;20045;-57
2023/11/21 00:24:48;;;;;;;11.23;3.90;;;13.20;99.90;;;;;;4265134;27;20043;-56
2023/11/21 00:26:50;;;;;;;8.77;4.05;;;13.30;99.90;;;;;;4265197;27;20391;-55
2023/11/21 00:28:53;;;;;;;9.88;4.63;;;13.20;99.90;;;;;;4264746;27;20043;-56
2023/11/21 00:30:55;;;;;;;9.85;4.22;;;13.20;99.90;;;;;;4265177;27;20048;-56
2023/11/21 00:32:57;;;;;;;9.73;3.90;;;13.20;99.90;;;;;;4265287;27;20042;-56
2023/11/21 00:34:59;;;;;;;9.73;4.55;;;13.10;99.90;;;;;;4264777;27;20053;-56
2023/11/21 00:37:02;;;;;;;9.35;3.75;;;13.10;99.90;;;;;;4265099;27;20252;-57
2023/11/21 00:39:07;;;;;;;11.23;4.50;;;13.10;99.90;;;;;;4266173;27;20054;-57
2023/11/21 00:41:09;;;;;;;9.35;3.90;;;13.00;99.90;;;;;;4267045;27;20051;-58
2023/11/21 00:43:11;;;;;;;9.82;3.85;;;12.90;99.90;;;;;;4266937;27;20042;-57
2023/11/21 00:45:13;;;;;;;12.60;4.05;;;12.90;99.90;;;;;;4265894;27;20544;-59
2023/11/21 00:47:17;;;;;;;6.82;2.92;;;13.00;99.90;;;;;;4265283;27;20049;-57
2023/11/21 00:49:23;;;;;;;10.00;3.80;;;12.90;99.90;;;;;;4264872;27;20054;-56
2023/11/21 00:51:25;;;;;;;11.93;3.80;;;12.90;99.90;;;;;;4264769;27;20055;-56
2023/11/21 00:53:27;;;;;;;10.65;3.67;;;12.90;99.90;;;;;;4264650;27;20074;-56
2023/11/21 00:55:31;;;;;;;10.65;3.60;;;13.00;99.90;;;;;;4264700;27;20103;-57
2023/11/21 00:57:35;;;;;;;9.18;3.42;;;12.90;99.90;;;;;;4264378;27;20049;-55
2023/11/21 00:59:37;;;;;;;9.00;3.40;;;12.80;99.90;;;;;;4264849;27;20042;-56
2023/11/21 01:01:39;;;;;;;7.22;3.40;;;12.70;99.90;;;;;;4264476;27;20058;-56
2023/11/21 01:03:42;;;;;;;12.27;4.13;;;12.70;99.90;;;;;;4264500;27;20471;-55
2023/11/21 01:05:45;;;;;;;11.00;3.53;;;12.70;99.90;;;;;;4264392;27;20134;-56
2023/11/21 01:07:47;;;;;;;8.05;3.55;;;12.60;99.90;;;;;;4264350;27;20046;-56
2023/11/21 01:09:49;;;;;;;14.10;3.30;;;12.70;99.90;;;;;;4264388;27;20095;-57
2023/11/21 01:11:53;;;;;;;9.88;3.78;;;12.80;99.90;;;;;;4263959;27;20049;-56
2023/11/21 01:13:59;;;;;;;11.10;3.30;;;12.80;99.90;;;;;;4264775;27;20047;-57
2023/11/21 01:16:02;;;;;;;7.28;3.08;;;12.80;99.90;;;;;;4264431;27;20046;-56
2023/11/21 01:18:04;;;;;;;9.85;3.05;;;12.80;99.90;;;;;;4264858;27;20449;-56
2023/11/21 01:20:17;;;;;;;8.93;3.63;;;12.80;99.90;;;;;;4264448;27;20039;-56
2023/11/21 01:22:25;;;;;;;5.88;3.00;;;12.70;99.90;;;;;;4265659;27;20039;-57
2023/11/21 01:24:28;;;;;;;7.78;3.67;;;12.60;99.90;;;;;;4265635;27;20039;-57
2023/11/21 01:26:30;;;;;;;8.32;3.67;;;12.60;99.90;;;;;;4264495;27;20039;-56
2023/11/21 01:28:34;;;;;;;8.95;3.17;;;12.60;99.90;;;;;;4264606;27;20510;-56
2023/11/21 01:30:37;;;;;;;9.97;3.13;;;12.60;99.90;;;;;;4268120;27;20051;-57
2023/11/21 01:32:40;;;;;;;8.82;4.05;;;12.60;99.90;;;;;;4267741;27;20047;-56
2023/11/21 01:34:43;;;;;;;11.93;3.70;;;12.70;99.90;;;;;;4267898;27;20071;-57
2023/11/21 01:36:46;;;;;;;9.77;3.58;;;12.60;99.90;;;;;;4267507;27;20068;-62
2023/11/21 01:38:49;;;;;;;10.85;3.55;;;12.70;99.90;;;;;;4267547;27;20145;-57
2023/11/21 01:40:51;;;;;;;7.78;3.45;;;12.80;99.90;;;;;;4267506;27;20499;-57
2023/11/21 01:42:53;;;;;;;32.80;19.27;;;12.80;99.90;;;;;;4267465;27;20049;-56
2023/11/21 01:44:57;;;;;;;15.90;6.88;;;12.80;99.90;;;;;;4267558;27;20046;-56
2023/11/21 01:47:04;;;;;;;15.40;4.90;;;12.70;99.90;;;;;;4267850;27;20042;-56
2023/11/21 01:49:06;;;;;;;11.75;4.50;;;12.60;99.90;;;;;;4267610;27;20046;-57
2023/11/21 01:51:09;;;;;;;9.20;4.05;;;12.50;99.90;;;;;;4267539;27;20046;-56
2023/11/21 01:53:13;;;;;;;9.23;4.07;;;12.50;99.90;;;;;;4267598;27;20669;-57
2023/11/21 01:55:19;;;;;;;9.45;3.95;;;12.60;99.90;;;;;;4267654;27;20399;-57
2023/11/21 01:57:29;;;;;;;11.43;3.92;;;12.70;99.90;;;;;;4251251;27;20055;-56
2023/11/21 01:59:36;;;;;;;7.55;3.38;;;12.70;99.90;;;;;;4268005;27;20067;-57
2023/11/21 02:01:41;;;;;;;10.18;3.60;;;12.80;99.90;;;;;;4267534;27;20047;-56
2023/11/21 02:03:43;;;;;;;7.05;3.40;;;12.90;99.90;;;;;;4267626;27;20051;-58
2023/11/21 02:05:46;;;;;;;10.57;4.18;;;12.80;99.90;;;;;;4267375;27;20084;-56
2023/11/21 02:07:48;;;;;;;11.70;4.47;;;12.80;99.90;;;;;;4267451;27;20536;-55
2023/11/21 02:09:51;;;;;;;8.57;3.45;;;12.80;99.90;;;;;;4266763;27;20122;-57
2023/11/21 02:12:00;;;;;;;9.23;3.47;;;12.80;99.90;;;;;;4267466;27;20042;-57
2023/11/21 02:14:03;;;;;;;10.00;3.97;;;12.80;99.90;;;;;;4267278;27;20047;-57
2023/11/21 02:16:06;;;;;;;7.72;3.38;;;12.60;99.90;;;;;;4267440;27;20399;-56
2023/11/21 02:18:11;;;;;;;13.23;4.10;;;12.70;99.90;;;;;;4267210;27;20063;-58
2023/11/21 02:20:17;;;;;;;9.60;4.18;;;12.80;99.90;;;;;;4267227;27;20491;-56
2023/11/21 02:22:20;;;;;;;11.20;4.20;;;12.80;99.90;;;;;;4248401;27;20046;-56
2023/11/21 02:24:24;;;;;;;11.10;3.67;;;12.80;99.90;;;;;;4266503;27;20042;-56
2023/11/21 02:26:26;;;;;;;9.50;3.92;;;12.80;99.90;;;;;;4266623;27;20042;-56
2023/11/21 02:28:33;;;;;;;10.27;3.83;;;12.90;99.90;;;;;;4267044;27;20047;-57
2023/11/21 02:30:36;;;;;;;9.43;3.20;;;13.00;99.90;;;;;;4266721;27;20046;-57
2023/11/21 02:32:39;;;;;;;8.90;3.80;;;12.90;99.90;;;;;;4266595;27;20054;-57
2023/11/21 02:34:50;;;;;;;10.70;3.75;;;13.00;99.90;;;;;;4266649;27;20054;-57
2023/11/21 02:36:53;;;;;;;10.30;3.97;;;12.90;99.90;;;;;;4266679;27;20496;-56
2023/11/21 02:38:56;;;;;;;12.00;3.83;;;12.80;99.90;;;;;;4266298;27;20099;-56
2023/11/21 02:40:59;;;;;;;8.27;3.35;;;12.90;99.90;;;;;;4265606;27;20476;-57
2023/11/21 02:43:01;;;;;;;10.48;4.00;;;13.00;99.90;;;;;;4266500;27;20042;-57
2023/11/21 02:45:05;;;;;;;11.27;3.60;;;13.00;99.90;;;;;;4267094;27;20043;-57
2023/11/21 02:47:08;;;;;;;8.02;3.53;;;12.90;99.90;;;;;;4266447;27;20063;-57
2023/11/21 02:49:11;;;;;;;8.23;3.30;;;12.90;99.90;;;;;;4266609;27;20046;-56
2023/11/21 02:51:15;;;;;;;8.07;3.33;;;13.00;99.90;;;;;;4266486;27;20054;-55
2023/11/21 02:53:18;;;;;;;8.70;3.30;;;13.00;99.90;;;;;;4266211;27;20499;-57
2023/11/21 02:55:20;;;;;;;6.90;3.28;;;13.00;99.90;;;;;;4266378;27;20216;-57
2023/11/21 02:57:24;;;;;;;16.08;3.85;;;13.00;99.90;;;;;;4266324;27;20095;-56
2023/11/21 02:59:31;;;;;;;13.13;3.92;;;13.00;99.90;;;;;;4266229;27;20038;-57
2023/11/21 03:01:33;;;;;;;9.43;3.35;;;12.90;99.90;;;;;;4266042;27;20047;-57
2023/11/21 03:03:38;;;;;;;8.90;3.67;;;12.90;99.90;;;;;;4266110;27;20361;-57
2023/11/21 03:05:41;;;;;;;7.28;3.00;;;12.80;99.90;;;;;;4266252;27;20047;-56
2023/11/21 03:07:43;;;;;;;7.88;3.35;;;12.90;99.90;;;;;;4265877;27;20047;-56
2023/11/21 03:09:45;;;;;;;9.57;3.50;;;13.00;99.90;;;;;;4266515;27;20042;-57
2023/11/21 03:11:48;;;;;;;13.23;4.03;;;13.00;99.90;;;;;;4267040;27;20039;-60
2023/11/21 03:13:51;;;;;;;7.07;3.42;;;13.00;99.90;;;;;;4268047;27;20053;-58
2023/11/21 03:15:54;;;;;;;9.13;3.30;;;13.00;99.90;;;;;;4265769;27;20046;-57
2023/11/21 03:17:57;;;;;;;10.10;3.50;;;13.00;99.90;;;;;;4266300;27;20050;-57
2023/11/21 03:20:16;;;;;;;10.48;3.58;;;12.90;99.90;;;;;;4266074;27;20046;-57
2023/11/21 03:22:18;;;;;;;9.68;3.67;;;12.90;99.90;;;;;;4263264;27;20093;-57
2023/11/21 03:24:22;;;;;;;12.13;3.95;;;12.90;99.90;;;;;;4265922;27;20461;-57
2023/11/21 03:26:29;;;;;;;8.43;3.33;;;12.90;99.90;;;;;;4265647;27;20099;-56
2023/11/21 03:28:34;;;;;;;9.80;3.40;;;12.90;99.90;;;;;;4265042;27;20064;-56
2023/11/21 03:30:38;;;;;;;9.48;3.20;;;12.80;99.90;;;;;;4265564;27;20091;-56
2023/11/21 03:32:42;;;;;;;8.85;3.47;;;12.90;99.90;;;;;;4266123;27;20077;-56
2023/11/21 03:34:55;;;;;;;7.47;3.45;;;12.80;99.90;;;;;;4266021;27;20502;-56
2023/11/21 03:36:58;;;;;;;7.78;3.10;;;12.90;99.90;;;;;;4265690;27;20072;-56
2023/11/21 03:39:00;;;;;;;8.15;2.97;;;12.90;99.90;;;;;;4265776;27;20046;-58
2023/11/21 03:41:03;;;;;;;9.68;3.45;;;12.80;99.90;;;;;;4266886;27;20038;-59
2023/11/21 03:43:05;;;;;;;8.00;3.00;;;12.90;99.90;;;;;;4266902;27;20451;-56
2023/11/21 03:45:08;;;;;;;10.52;3.13;;;12.90;99.90;;;;;;4266066;27;20050;-57
2023/11/21 03:47:12;;;;;;;8.98;3.22;;;12.90;99.90;;;;;;4265674;27;20087;-57
2023/11/21 03:49:17;;;;;;;9.23;2.97;;;12.90;99.90;;;;;;4265779;27;20050;-57
2023/11/21 03:51:19;;;;;;;10.52;3.53;;;12.80;99.90;;;;;;4265456;27;20062;-55
2023/11/21 03:53:22;;;;;;;9.18;3.33;;;12.80;99.90;;;;;;4265597;27;20047;-57
2023/11/21 03:55:24;;;;;;;6.82;3.22;;;12.70;99.90;;;;;;4265619;27;20046;-57
2023/11/21 03:57:27;;;;;;;11.32;4.10;;;12.80;99.90;;;;;;4265481;27;20396;-57
2023/11/21 03:59:33;;;;;;;8.20;2.85;;;12.80;99.90;;;;;;4265698;27;20142;-57
2023/11/21 04:01:35;;;;;;;9.80;3.60;;;12.90;99.90;;;;;;4265506;27;20046;-56
2023/11/21 04:03:40;;;;;;;7.95;3.58;;;12.90;99.90;;;;;;4265482;27;20039;-56
2023/11/21 04:06:06;;;;;;;8.80;3.25;;;12.90;99.90;;;;;;4265022;27;20113;-56
2023/11/21 04:08:05;;;;;;;11.43;3.75;;;13.00;99.90;;;;;;4265184;27;20054;-55
2023/11/21 04:10:08;;;;;;;10.10;3.28;;;13.00;99.90;;;;;;4265249;27;20075;-55
2023/11/21 04:12:11;;;;;;;11.35;3.17;;;13.00;99.90;;;;;;4265238;27;20083;-56
2023/11/21 04:14:13;;;;;;;6.82;3.22;;;13.10;99.90;;;;;;4265166;27;20039;-56
2023/11/21 04:16:16;;;;;;;11.75;4.10;;;12.90;99.90;;;;;;4265201;27;20057;-58
2023/11/21 04:18:18;;;;;;;7.25;3.30;;;12.90;99.90;;;;;;4265135;27;20046;-56
2023/11/21 04:20:23;;;;;;;8.25;3.28;;;12.90;99.90;;;;;;4264693;27;20039;-56
2023/11/21 04:22:25;;;;;;;6.65;2.95;;;12.90;99.90;;;;;;4265229;27;20535;-56
2023/11/21 04:24:28;;;;;;;7.63;3.30;;;12.90;99.90;;;;;;4246859;27;20051;-56
2023/11/21 04:26:30;;;;;;;7.47;2.65;;;13.00;99.90;;;;;;4265141;27;20445;-57
2023/11/21 04:28:32;;;;;;;6.47;3.50;;;13.00;99.90;;;;;;4246827;27;20051;-56
2023/11/21 04:30:35;;;;;;;7.22;2.88;;;12.90;99.90;;;;;;4265130;27;20061;-57
2023/11/21 04:32:38;;;;;;;7.72;2.97;;;12.90;99.90;;;;;;4265079;27;20247;-56
2023/11/21 04:34:43;;;;;;;10.07;2.88;;;12.90;99.90;;;;;;4264824;27;20065;-56
2023/11/21 04:36:47;;;;;;;7.03;3.22;;;13.00;99.90;;;;;;4264837;27;20042;-57
2023/11/21 04:38:49;;;;;;;7.63;3.45;;;12.90;99.90;;;;;;4266283;27;20054;-57
2023/11/21 04:41:12;;;;;;;9.13;3.30;;;12.90;99.90;;;;;;4261056;27;20106;-56
2023/11/21 04:43:14;;;;;;;6.78;3.03;;;12.80;99.90;;;;;;4265083;27;20049;-56
2023/11/21 04:45:16;;;;;;;7.55;3.13;;;12.90;99.90;;;;;;4264831;27;20042;-56
2023/11/21 04:47:19;;;;;;;8.27;3.20;;;12.90;99.90;;;;;;4264736;27;20381;-56
2023/11/21 04:49:22;;;;;;;6.57;2.90;;;13.00;99.90;;;;;;4264099;27;20122;-56
2023/11/21 04:51:24;;;;;;;9.70;3.13;;;13.00;99.90;;;;;;4264547;27;20046;-56
2023/11/21 04:53:28;;;;;;;5.45;3.03;;;13.00;99.90;;;;;;4264740;27;20050;-56
2023/11/21 04:55:31;;;;;;;6.43;3.25;;;13.00;99.90;;;;;;4264569;27;20039;-56
2023/11/21 04:57:33;;;;;;;8.88;3.50;;;13.00;99.90;;;;;;4264889;27;20476;-55
2023/11/21 04:59:38;;;;;;;7.85;3.08;;;13.00;99.90;;;;;;4265196;27;20073;-57
2023/11/21 05:01:40;;;;;;;7.13;3.05;;;13.00;99.90;;;;;;4264749;27;20043;-62
2023/11/21 05:03:43;;;;;;;7.13;3.47;;;13.10;99.90;;;;;;4265569;27;20050;-55
2023/11/21 05:05:45;;;;;;;10.73;3.92;;;13.00;99.90;;;;;;4264795;27;20433;-56
2023/11/21 05:07:50;;;;;;;5.80;3.33;;;13.00;99.90;;;;;;4264664;27;20045;-57
2023/11/21 05:09:53;;;;;;;6.90;3.13;;;13.00;99.90;;;;;;4264869;27;20043;-56
2023/11/21 05:11:56;;;;;;;6.80;3.80;;;12.90;99.90;;;;;;4264503;27;20051;-56
2023/11/21 05:13:59;;;;;;;8.60;3.80;;;13.00;99.90;;;;;;4264714;27;20043;-56
2023/11/21 05:16:05;;;;;;;7.78;3.97;;;13.00;99.90;;;;;;4264399;27;20102;-55
2023/11/21 05:18:07;;;;;;;5.50;3.40;;;13.00;99.90;;;;;;4264033;27;20047;-56
2023/11/21 05:20:12;;;;;;;5.72;3.45;;;13.00;99.90;;;;;;4264559;27;20043;-56
2023/11/21 05:22:14;;;;;;;5.05;3.30;;;13.00;99.90;;;;;;4264289;27;20043;-56
2023/11/21 05:24:16;;;;;;;5.82;3.67;;;13.10;99.90;;;;;;4264575;27;20046;-56
2023/11/21 05:26:20;;;;;;;5.28;3.40;;;13.20;99.90;;;;;;4264241;27;20099;-57
2023/11/21 05:28:22;;;;;;;6.20;4.03;;;13.10;99.90;;;;;;4246019;28;20084;-57
2023/11/21 05:30:24;;;;;;;7.18;4.68;;;13.10;99.90;;;;;;4264377;27;20047;-57
2023/11/21 05:32:26;;;;;;;9.45;4.75;;;13.10;99.90;;;;;;4263989;27;20043;-57
2023/11/21 05:34:28;;;;;;;6.53;3.83;;;13.00;99.90;;;;;;4264422;27;20430;-57
2023/11/21 05:36:31;;;;;;;7.43;5.00;;;13.10;99.90;;;;;;4264563;27;20046;-56
2023/11/21 05:38:33;;;;;;;5.88;3.80;;;13.10;99.90;;;;;;4264148;27;20143;-56
2023/11/21 05:40:36;;;;;;;12.15;5.40;;;13.00;99.90;;;;;;4264460;27;20046;-57
2023/11/21 05:42:40;;;;;;;9.15;4.95;;;13.00;99.90;;;;;;4264199;27;20047;-57
2023/11/21 05:44:45;;;;;;;8.07;4.90;;;13.00;99.90;;;;;;4264474;27;20433;-57
2023/11/21 05:46:47;;;;;;;10.27;4.70;;;13.00;99.90;;;;;;4264324;27;20070;-57
2023/11/21 05:48:50;;;;;;;13.95;6.32;;;13.10;99.90;;;;;;4264492;27;20092;-56
2023/11/21 05:50:52;;;;;;;9.68;5.82;;;13.10;99.90;;;;;;4264170;27;20122;-56
2023/11/21 05:52:54;;;;;;;7.07;5.05;;;13.10;99.90;;;;;;4264603;27;20472;-56
2023/11/21 05:54:56;;;;;;;11.57;5.63;;;13.00;99.90;;;;;;4264352;27;20046;-57
2023/11/21 05:57:02;;;;;;;9.75;4.75;;;13.00;99.90;;;;;;4264318;27;20186;-56
2023/11/21 05:59:06;;;;;;;6.38;4.38;;;13.00;99.90;;;;;;4264151;27;20143;-57
2023/11/21 06:01:09;;;;;;;7.05;4.40;;;13.00;99.90;;;;;;4264096;27;20050;-56
2023/11/21 06:03:12;;;;;;;6.78;4.20;;;13.00;99.90;;;;;;4263724;27;20054;-57
2023/11/21 06:05:15;;;;;;;8.57;4.80;;;13.10;99.90;;;;;;4264311;27;20127;-56
2023/11/21 06:07:17;;;;;;;7.18;4.70;;;13.20;99.90;;;;;;4264015;27;20064;-56
2023/11/21 06:09:20;;;;;;;8.40;5.32;;;13.20;99.90;;;;;;4263982;27;20042;-55
2023/11/21 06:11:22;;;;;;;8.57;5.07;;;13.20;99.90;;;;;;4264021;27;20090;-57
2023/11/21 06:13:26;;;;;;;7.07;4.93;;;13.10;99.90;;;;;;4263926;27;20094;-57
2023/11/21 06:15:30;;;;;;;8.38;5.55;;;13.20;99.90;;;;;;4263797;27;20050;-57
2023/11/21 06:17:32;;;;;;;7.37;5.90;;;13.20;99.90;;;;;;4266636;27;20043;-63
2023/11/21 06:19:34;;;;;;;6.22;5.05;;;13.00;99.90;;;;;;4267138;27;20047;-56
2023/11/21 06:21:39;;;;;;;8.13;5.57;;;13.00;99.90;;;;;;4266709;27;20522;-57
2023/11/21 06:23:41;;;;;;;8.90;6.15;;;13.00;99.90;;;;;;4266958;27;20108;-57
2023/11/21 06:25:44;;;;;;;7.15;4.93;;;13.10;99.90;;;;;;4267125;27;20043;-57
2023/11/21 06:27:48;;;;;;;8.52;4.95;;;13.20;99.90;;;;;;4266809;27;20070;-58
2023/11/21 06:29:50;;;;;;;9.07;4.57;;;13.20;99.90;;;;;;4266730;27;20091;-56
2023/11/21 06:31:54;;;;;;;8.43;4.22;;;13.10;99.90;;;;;;4266673;27;20080;-56
2023/11/21 06:33:57;;;;;;;;;;;13.10;99.90;;;;;;4267241;27;20492;-58
2023/11/21 06:36:02;;;;;;;5.07;3.08;;;13.10;99.90;;;;;;4248274;27;19923;-57
2023/11/21 06:38:05;;;;;;;7.90;3.85;;;13.10;99.90;;;;;;4266641;27;20445;-56
2023/11/21 06:40:09;;;;;;;5.60;3.70;;;13.10;99.90;;;;;;4266680;27;20051;-56
2023/11/21 06:42:11;;;;;;;7.28;4.47;;;13.10;99.90;;;;;;4266561;27;20127;-56
2023/11/21 06:44:13;;;;;;;12.32;3.50;;;13.20;99.90;;;;;;4266613;27;20573;-56
2023/11/21 06:46:15;;;;;;;5.03;3.72;;;13.20;99.90;;;;;;4266292;27;20050;-58
2023/11/21 06:48:19;;;;;;;5.00;2.97;;;13.10;99.90;;;;;;4266682;27;20051;-56
2023/11/21 06:50:21;;;;;;;6.80;2.85;;;13.20;99.90;;;;;;4266603;27;20053;-56
2023/11/21 06:52:24;;;;;;;3.83;2.90;;;13.20;99.90;;;;;;4266820;27;20061;-59
2023/11/21 06:54:26;;;;;;;6.00;3.10;;;13.20;99.90;;;;;;4267328;27;20049;-56
2023/11/21 06:56:28;;;;;;;5.93;3.33;;;13.30;99.90;;;;;;4266845;27;20062;-57
2023/11/21 06:58:32;;;;;;;6.68;3.47;;;13.30;99.90;;;;;;4266514;27;20127;-56
2023/11/21 07:00:34;;;;;;;5.13;3.42;;;13.30;99.90;;;;;;4266254;27;20121;-56
2023/11/21 07:02:36;;;;;;;7.55;4.05;;;13.30;99.90;;;;;;4266347;27;20043;-57
2023/11/21 07:04:40;;;;;;;5.90;4.28;;;13.30;99.90;;;;;;4266376;27;20042;-58
2023/11/21 07:06:43;;;;;;;6.68;4.05;;;13.30;99.90;;;;;;4247922;27;20071;-57
2023/11/21 07:08:45;;;;;;;5.78;4.65;;;13.30;99.90;;;;;;4266261;27;20099;-56
2023/11/21 07:10:47;;;;;;;6.13;4.78;;;13.20;99.90;;;;;;4266094;27;20066;-57
2023/11/21 07:12:51;;;;;;;5.78;4.30;;;13.20;99.90;;;;;;4266136;27;20046;-56
2023/11/21 07:14:53;;;;;;;5.75;4.30;;;13.30;99.90;;;;;;4265983;27;20439;-56
2023/11/21 07:16:56;;;;;;;5.80;3.92;;;13.40;99.90;;;;;;4266278;27;20548;-56
2023/11/21 07:18:58;;;;;;;8.27;4.80;;;13.40;99.90;;;;;;4266556;27;20385;-62
2023/11/21 07:21:02;;;;;;;11.32;4.90;;;13.40;99.90;;;;;;4266659;27;20051;-56
2023/11/21 07:23:05;;;;;;;8.32;4.57;;;13.30;99.90;;;;;;4266078;27;20049;-58
2023/11/21 07:25:09;;;;;;;10.20;4.80;;;13.30;99.90;;;;;;4265927;27;20039;-56
2023/11/21 07:27:11;;;;;;;5.50;4.40;;;13.40;99.90;;;;;;4265820;27;20092;-57
2023/11/21 07:29:13;;;;;;;5.35;3.85;;;13.40;99.90;;;;;;4265559;27;20043;-56
2023/11/21 07:31:15;;;;;;;9.20;5.75;;;13.40;99.90;;;;;;4247558;27;20047;-58
2023/11/21 07:33:17;;;;;;;6.65;5.25;;;13.40;99.90;;;;;;4265689;27;20058;-56
2023/11/21 07:35:19;;;;;;;9.10;4.70;;;13.30;99.90;;;;;;4265953;27;20103;-57
2023/11/21 07:37:23;;;;;;;10.98;5.45;;;13.30;99.90;;;;;;4265730;27;20046;-56
2023/11/21 07:39:25;;;;;;;7.82;5.15;;;13.40;99.90;;;;;;4247021;27;20116;-57
2023/11/21 07:41:29;;;;;;;7.78;5.18;;;13.40;99.90;;;;;;4265697;27;20537;-57
2023/11/21 07:43:34;;;;;;;7.97;5.63;;;13.50;99.90;;;;;;4265240;27;20043;-55
2023/11/21 07:45:37;;;;;;;9.40;6.32;;;13.50;99.90;;;;;;4247287;27;20470;-57
2023/11/21 07:47:39;;;;;;;10.02;5.43;;;13.40;99.90;;;;;;4265562;27;20038;-56
2023/11/21 07:49:43;;;;;;;6.88;5.55;;;13.50;99.90;;;;;;4247020;27;20043;-56
2023/11/21 07:51:46;;;;;;;12.77;6.40;;;13.50;99.90;;;;;;4265765;27;20043;-55
2023/11/21 07:53:49;;;;;;;10.35;6.50;;;13.50;99.90;;;;;;4265429;27;20488;-57
2023/11/21 07:55:52;;;;;;;7.18;5.82;;;13.50;99.90;;;;;;4265814;27;20043;-56
2023/11/21 07:57:54;;;;;;;7.28;5.85;;;13.50;99.90;;;;;;4265462;27;20054;-58
2023/11/21 07:59:56;;;;;;;8.23;4.97;;;13.50;99.90;;;;;;4265341;27;20125;-57
2023/11/21 08:01:58;;;;;;;7.53;5.43;;;13.50;99.90;;;;;;4265189;27;20453;-55
2023/11/21 08:04:03;;;;;;;6.47;4.63;;;13.50;99.90;;;;;;4265186;27;20046;-56
2023/11/21 08:06:07;;;;;;;7.97;5.90;;;13.50;99.90;;;;;;4265279;27;20043;-57
2023/11/21 08:08:09;;;;;;;8.23;5.22;;;13.60;99.90;;;;;;4265093;27;20047;-56
2023/11/21 08:10:13;;;;;;;9.20;5.68;;;13.50;99.90;;;;;;4265327;27;20043;-56
2023/11/21 08:12:16;;;;;;;8.75;5.80;;;13.50;99.90;;;;;;4264879;27;20385;-55
2023/11/21 08:14:18;;;;;;;9.70;6.75;;;13.30;99.90;;;;;;4265173;27;20043;-57
2023/11/21 08:16:20;;;;;;;14.18;6.18;;;13.30;99.90;;;;;;4265152;27;20047;-56
2023/11/21 08:18:22;;;;;;;12.27;6.60;;;13.20;99.90;;;;;;4265127;27;20038;-55
2023/11/21 08:20:24;;;;;;;8.43;5.88;;;13.20;99.90;;;;;;4265088;27;20066;-56
2023/11/21 08:22:27;;;;;;;9.02;5.88;;;13.10;99.90;;;;;;4264901;27;20074;-55
2023/11/21 08:24:29;;;;;;;11.27;6.50;;;13.20;99.90;;;;;;4265102;27;20081;-56
2023/11/21 08:26:32;;;;;;;9.02;5.70;;;13.30;99.90;;;;;;4246597;27;20039;-57
2023/11/21 08:28:35;;;;;;;10.88;5.97;;;13.30;99.90;;;;;;4265083;27;20103;-56
2023/11/21 08:30:37;;;;;;;12.63;6.05;;;13.20;99.90;;;;;;4265018;27;20066;-58
2023/11/21 08:32:39;;;;;;;10.32;6.75;;;13.20;99.90;;;;;;4265107;27;20046;-56
2023/11/21 08:34:44;;;;;;;10.13;6.22;;;13.20;99.90;;;;;;4265048;27;20083;-56
2023/11/21 08:36:46;;;;;;;;;;;13.30;99.90;;;;;;4247276;27;20638;-57
2023/11/21 08:38:48;;;;;;;13.43;6.85;;;13.30;99.90;;;;;;4263806;27;19926;-56
2023/11/21 08:40:50;;;;;;;10.38;6.57;;;13.30;99.90;;;;;;4264491;27;20070;-56
2023/11/21 08:42:54;;;;;;;15.35;7.53;;;13.40;99.90;;;;;;4264639;27;20046;-56
2023/11/21 08:44:57;;;;;;;11.60;7.65;;;13.40;99.90;;;;;;4265036;27;20046;-56
2023/11/21 08:46:59;;;;;;;10.30;7.22;;;13.50;99.90;;;;;;4264775;27;20099;-57
2023/11/21 08:49:02;;;;;;;14.07;8.40;;;13.50;99.90;;;;;;4264745;27;20054;-56
2023/11/21 08:51:05;;;;;;;14.70;8.05;;;13.50;99.90;;;;;;4264806;27;20038;-57
2023/11/21 08:53:07;;;;;;;11.65;7.63;;;13.60;99.90;;;;;;4264870;27;20046;-57
2023/11/21 08:55:10;;;;;;;10.35;7.15;;;13.60;99.90;;;;;;4264925;27;20121;-56
2023/11/21 08:57:13;;;;;;;13.52;7.03;;;13.70;99.90;;;;;;4264356;27;20066;-56
2023/11/21 08:59:17;;;;;;;11.88;7.43;;;13.60;99.90;;;;;;4264785;27;20095;-56
2023/11/21 09:01:19;;;;;;;7.75;6.43;;;13.60;99.90;;;;;;4264578;27;20070;-56
2023/11/21 09:03:21;;;;;;;8.98;7.00;;;13.60;99.90;;;;;;4264498;27;20194;-56
2023/11/21 09:05:23;;;;;;;9.43;6.75;;;13.40;99.90;;;;;;4263888;27;20039;-55
2023/11/21 09:07:25;;;;;;;10.95;6.32;;;13.40;99.90;;;;;;4264754;27;20121;-58
2023/11/21 09:09:28;;;;;;;10.52;6.68;;;13.30;99.90;;;;;;4264801;27;20043;-57
2023/11/21 09:11:33;;;;;;;6.55;5.85;;;13.30;99.90;;;;;;4264355;27;20500;-57
2023/11/21 09:13:36;;;;;;;6.95;5.32;;;13.30;99.90;;;;;;4264626;27;20070;-61
2023/11/21 09:15:40;;;;;;;7.10;5.03;;;13.30;99.90;;;;;;4264690;27;20047;-58
2023/11/21 09:17:43;;;;;;;6.47;5.07;;;13.40;99.90;;;;;;4264754;27;20062;-56
2023/11/21 09:19:49;;;;;;;5.55;5.05;;;13.50;99.90;;;;;;4264607;27;20234;-58
2023/11/21 09:21:52;;;;;;;8.30;5.40;;;13.60;99.90;;;;;;4264678;27;20047;-56
2023/11/21 09:23:54;;;;;;;6.43;4.65;;;13.60;99.90;;;;;;4264628;27;20046;-60
2023/11/21 09:25:56;;;;;;;5.72;4.40;;;13.70;99.90;;;;;;4265945;27;20488;-59
2023/11/21 09:27:58;;;;;;;7.38;5.07;;;13.70;99.90;;;;;;4265378;27;20078;-57
2023/11/21 09:30:00;;;;;;;7.25;4.90;;;13.70;99.90;;;;;;4264564;27;20046;-57
2023/11/21 09:32:06;;;;;;;6.22;4.43;;;13.80;99.90;;;;;;4264416;27;20054;-58
2023/11/21 09:34:08;;;;;;;5.97;4.25;;;13.80;99.90;;;;;;4264764;27;20046;-57
2023/11/21 09:36:14;;;;;;;9.32;4.70;;;13.80;99.90;;;;;;4264327;27;20051;-58
2023/11/21 09:38:16;;;;;;;5.30;3.97;;;13.90;99.90;;;;;;4264453;27;20058;-57
2023/11/21 09:40:22;;;;;;;6.15;4.22;;;14.00;99.90;;;;;;4264188;27;20050;-57
2023/11/21 09:42:38;;;;;;;9.32;4.20;;;14.00;99.90;;;;;;4264349;27;20065;-57
2023/11/21 09:44:51;;;;;;;6.80;4.15;;;14.00;99.90;;;;;;4265240;27;20069;-58
2023/11/21 09:46:54;;;;;;;6.47;3.50;;;13.90;99.90;;;;;;4265630;27;20042;-58
2023/11/21 09:49:01;;;;;;;3.78;2.97;;;13.90;99.90;;;;;;4265038;27;20070;-57
2023/11/21 09:51:04;;;;;;;5.32;3.47;;;14.00;99.90;;;;;;4266811;27;20511;-57
2023/11/21 09:53:14;;;;;;;6.22;3.60;;;14.00;99.90;;;;;;4267799;27;20047;-57
2023/11/21 09:55:21;;;;;;;7.18;3.50;;;14.10;99.90;;;;;;4267778;27;20043;-58
2023/11/21 09:57:23;;;;;;;5.90;3.22;;;14.10;99.90;;;;;;4267845;27;20047;-58
2023/11/21 09:59:31;;;;;;;5.93;3.50;;;14.00;99.90;;;;;;4268055;27;20053;-60
2023/11/21 10:01:37;;;;;;;5.57;3.28;;;14.00;99.90;;;;;;4249501;27;20047;-57
2023/11/21 10:03:39;;;;;;;4.10;2.88;;;14.00;99.90;;;;;;4267550;27;20471;-57
2023/11/21 10:05:45;;;;;;;6.65;3.45;;;14.00;99.90;;;;;;4267682;27;20047;-57
2023/11/21 10:07:50;;;;;;;10.60;3.70;;;14.10;99.90;;;;;;4267194;27;20437;-57
2023/11/21 10:09:54;;;;;;;5.15;2.90;;;14.00;99.90;;;;;;4267546;27;20500;-57
2023/11/21 10:11:58;;;;;;;5.05;2.67;;;14.10;99.90;;;;;;4267248;27;20042;-57
2023/11/21 10:14:02;;;;;;;5.80;2.90;;;14.00;99.90;;;;;;4267003;27;20410;-55
2023/11/21 10:16:08;;;;;;;2.97;2.50;;;13.90;99.90;;;;;;4249105;27;20079;-57
2023/11/21 10:18:11;;;;;;;2.90;2.22;;;14.00;99.90;;;;;;4266977;27;20092;-56
2023/11/21 10:20:14;;;;;;;3.72;2.97;;;14.00;99.90;;;;;;4267192;27;20517;-57
2023/11/21 10:22:19;;;;;;;4.32;2.92;;;13.80;99.90;;;;;;4267261;27;20070;-57
2023/11/21 10:24:22;;;;;;;6.70;2.78;;;13.90;99.90;;;;;;4266780;27;20074;-56
2023/11/21 10:26:26;;;;;;;;;;;13.90;99.90;;;;;;4267383;27;20093;-57
2023/11/21 10:28:37;;;;;;;5.32;2.45;;;13.90;99.90;;;;;;4266816;27;19972;-58
2023/11/21 10:30:40;;;;;;;5.53;2.85;;;13.80;99.90;;;;;;4267210;27;20377;-57
2023/11/21 10:32:42;;;;;;;4.50;2.60;;;13.70;99.90;;;;;;4266771;27;20046;-56
2023/11/21 10:34:55;;;;;;;5.13;2.35;;;13.70;99.90;;;;;;4266827;27;20121;-57
2023/11/21 10:36:58;;;;;;;5.50;2.42;;;13.80;99.90;;;;;;4266352;27;20047;-56
2023/11/21 10:39:01;;;;;;;4.93;2.30;;;13.80;99.90;;;;;;4266556;27;20055;-56
2023/11/21 10:41:07;;;;;;;5.55;2.70;;;14.00;99.90;;;;;;4266531;27;20046;-56